createdAt,value
2018-12-30T00:01:51.528Z,9.00
2018-12-30T00:04:21.169Z,9.00
2018-12-30T00:06:50.654Z,8.90
2018-12-30T00:09:19.860Z,8.90
2018-12-30T00:11:49.096Z,9.00
2018-12-30T00:14:18.336Z,9.00
2018-12-30T00:16:48.013Z,9.00
2018-12-30T00:19:17.148Z,9.00
2018-12-30T00:21:46.760Z,8.90
2018-12-30T00:24:16.027Z,8.90
2018-12-30T00:26:45.705Z,8.90
2018-12-30T00:29:14.957Z,8.90
2018-12-30T00:31:44.203Z,8.90
2018-12-30T00:34:13.437Z,8.90
2018-12-30T00:36:42.693Z,8.90
2018-12-30T00:39:12.248Z,8.80
2018-12-30T00:41:41.399Z,8.80
2018-12-30T00:44:10.606Z,8.90
2018-12-30T00:46:39.823Z,8.90
2018-12-30T00:49:09.056Z,9.00
2018-12-30T00:51:38.305Z,9.00
2018-12-30T00:54:07.412Z,9.00
2018-12-30T00:56:36.621Z,9.00
2018-12-30T00:59:05.810Z,9.00
2018-12-30T01:01:35.045Z,8.90
2018-12-30T01:04:04.299Z,9.00
2018-12-30T01:06:33.855Z,9.00
2018-12-30T01:09:03.433Z,9.00
2018-12-30T01:11:32.680Z,9.00
2018-12-30T01:14:01.891Z,9.00
2018-12-30T01:16:31.127Z,8.90
2018-12-30T01:19:00.466Z,9.00
2018-12-30T01:21:29.678Z,9.00
2018-12-30T01:23:58.939Z,9.00
2018-12-30T01:26:28.214Z,8.90
2018-12-30T01:28:57.460Z,8.90
2018-12-30T01:31:26.616Z,8.90
2018-12-30T01:33:55.953Z,8.90
2018-12-30T01:36:25.164Z,8.90
2018-12-30T01:38:54.443Z,8.80
2018-12-30T01:41:23.744Z,8.90
2018-12-30T01:43:53.097Z,8.80
2018-12-30T01:46:22.387Z,8.80
2018-12-30T01:48:51.513Z,8.80
2018-12-30T01:51:20.670Z,8.80
2018-12-30T01:53:49.892Z,8.80
2018-12-30T01:56:19.056Z,8.80
2018-12-30T01:58:48.623Z,8.70
2018-12-30T02:01:17.860Z,8.80
2018-12-30T02:03:47.147Z,8.80
2018-12-30T02:06:16.280Z,8.80
2018-12-30T02:08:45.467Z,8.80
2018-12-30T02:11:14.922Z,8.80
2018-12-30T02:13:44.116Z,8.80
2018-12-30T02:16:13.299Z,8.80
2018-12-30T02:18:42.579Z,8.80
2018-12-30T02:21:11.783Z,8.80
2018-12-30T02:23:41.323Z,8.80
2018-12-30T02:26:10.521Z,8.80
2018-12-30T02:28:39.721Z,8.80
2018-12-30T02:31:08.869Z,8.80
2018-12-30T02:33:38.069Z,8.80
2018-12-30T02:36:07.588Z,8.80
2018-12-30T02:38:36.767Z,8.80
2018-12-30T02:41:05.904Z,8.80
2018-12-30T02:43:35.126Z,8.70
2018-12-30T02:46:04.362Z,8.70
2018-12-30T02:48:33.546Z,8.70
2018-12-30T02:51:02.752Z,8.70
2018-12-30T02:53:31.907Z,8.70
2018-12-30T02:56:01.140Z,8.70
2018-12-30T02:58:30.409Z,8.70
2018-12-30T03:00:59.579Z,8.70
2018-12-30T03:03:28.770Z,8.70
2018-12-30T03:05:57.963Z,8.70
2018-12-30T03:08:27.097Z,8.70
2018-12-30T03:10:56.613Z,8.70
2018-12-30T03:13:25.753Z,8.60
2018-12-30T03:15:55.038Z,8.60
2018-12-30T03:18:24.228Z,8.60
2018-12-30T03:20:53.418Z,8.60
2018-12-30T03:23:22.590Z,8.60
2018-12-30T03:25:51.801Z,8.60
2018-12-30T03:28:20.990Z,8.50
2018-12-30T03:30:50.128Z,8.50
2018-12-30T03:33:19.386Z,8.60
2018-12-30T03:35:48.567Z,8.50
2018-12-30T03:38:17.739Z,8.50
2018-12-30T03:40:46.864Z,8.50
2018-12-30T03:43:16.026Z,8.40
2018-12-30T03:45:45.168Z,8.40
2018-12-30T03:48:14.311Z,8.40
2018-12-30T03:50:43.456Z,8.40
2018-12-30T03:53:12.646Z,8.40
2018-12-30T03:55:41.811Z,8.40
2018-12-30T03:58:10.931Z,8.40
2018-12-30T04:00:40.073Z,8.40
2018-12-30T04:03:09.207Z,8.40
2018-12-30T04:05:38.365Z,8.40
2018-12-30T04:08:07.607Z,8.40
2018-12-30T04:10:36.833Z,8.40
2018-12-30T04:13:05.982Z,8.40
2018-12-30T04:15:35.092Z,8.40
2018-12-30T04:18:04.248Z,8.40
2018-12-30T04:20:33.390Z,8.40
2018-12-30T04:23:02.577Z,8.40
2018-12-30T04:25:31.832Z,8.40
2018-12-30T04:28:01.059Z,8.50
2018-12-30T04:30:30.237Z,8.50
2018-12-30T04:32:59.387Z,8.50
2018-12-30T04:35:28.591Z,8.40
2018-12-30T04:37:57.799Z,8.40
2018-12-30T04:40:26.967Z,8.50
2018-12-30T04:42:56.209Z,8.40
2018-12-30T04:45:25.387Z,8.40
2018-12-30T04:47:54.725Z,8.50
2018-12-30T04:50:23.887Z,8.50
2018-12-30T04:52:53.170Z,8.50
2018-12-30T04:55:22.323Z,8.50
2018-12-30T04:57:51.460Z,8.50
2018-12-30T05:00:20.586Z,8.50
2018-12-30T05:02:49.773Z,8.50
2018-12-30T05:05:19.002Z,8.50
2018-12-30T05:07:48.176Z,8.50
2018-12-30T05:10:17.362Z,8.40
2018-12-30T05:12:46.556Z,8.50
2018-12-30T05:15:15.716Z,8.50
2018-12-30T05:17:44.894Z,8.50
2018-12-30T05:20:14.073Z,8.50
2018-12-30T05:22:43.205Z,8.40
2018-12-30T05:25:12.385Z,8.40
2018-12-30T05:27:41.562Z,8.40
2018-12-30T05:30:10.704Z,8.40
2018-12-30T05:32:39.939Z,8.40
2018-12-30T05:35:09.080Z,8.40
2018-12-30T05:37:38.212Z,8.40
2018-12-30T05:40:07.343Z,8.40
2018-12-30T05:42:36.521Z,8.40
2018-12-30T05:45:05.813Z,8.40
2018-12-30T05:47:34.938Z,8.40
2018-12-30T05:50:04.205Z,8.40
2018-12-30T05:52:33.343Z,8.30
2018-12-30T05:55:02.511Z,8.30
2018-12-30T05:57:31.696Z,8.30
2018-12-30T06:00:00.824Z,8.20
2018-12-30T06:02:29.957Z,8.20
2018-12-30T06:04:59.120Z,8.20
2018-12-30T06:07:28.262Z,8.30
2018-12-30T06:09:57.389Z,8.20
2018-12-30T06:12:26.577Z,8.20
2018-12-30T06:14:55.827Z,8.20
2018-12-30T06:17:25.001Z,8.10
2018-12-30T06:19:54.145Z,8.10
2018-12-30T06:22:23.312Z,8.00
2018-12-30T06:24:52.467Z,8.00
2018-12-30T06:27:21.697Z,7.90
2018-12-30T06:29:50.911Z,7.80
2018-12-30T06:32:20.055Z,7.80
2018-12-30T06:34:49.248Z,7.70
2018-12-30T06:37:18.392Z,7.70
2018-12-30T06:39:47.553Z,7.60
2018-12-30T06:42:16.699Z,7.60
2018-12-30T06:44:45.839Z,7.60
2018-12-30T06:47:15.032Z,7.60
2018-12-30T06:49:44.215Z,7.70
2018-12-30T06:52:13.355Z,7.80
2018-12-30T06:54:42.510Z,7.80
2018-12-30T06:57:11.650Z,7.80
2018-12-30T06:59:40.751Z,7.80
2018-12-30T07:02:09.940Z,7.80
2018-12-30T07:04:39.119Z,7.70
2018-12-30T07:07:08.313Z,7.60
2018-12-30T07:09:37.551Z,7.60
2018-12-30T07:12:06.677Z,7.50
2018-12-30T07:14:35.916Z,7.50
2018-12-30T07:17:05.180Z,7.40
2018-12-30T07:19:34.310Z,7.40
2018-12-30T07:22:03.437Z,7.40
2018-12-30T07:24:32.580Z,7.40
2018-12-30T07:27:01.696Z,7.30
2018-12-30T07:29:30.829Z,7.20
2018-12-30T07:31:59.990Z,7.20
2018-12-30T07:34:29.153Z,7.20
2018-12-30T07:36:58.317Z,7.10
2018-12-30T07:39:27.559Z,7.10
2018-12-30T07:41:56.728Z,7.00
2018-12-30T07:44:25.889Z,7.00
2018-12-30T07:46:55.128Z,7.00
2018-12-30T07:49:24.358Z,7.00
2018-12-30T07:51:53.534Z,7.00
2018-12-30T07:54:22.747Z,7.10
2018-12-30T07:56:51.961Z,7.20
2018-12-30T07:59:21.126Z,7.30
2018-12-30T08:01:50.259Z,7.40
2018-12-30T08:04:19.486Z,7.50
2018-12-30T08:06:48.680Z,7.60
2018-12-30T08:09:17.840Z,7.70
2018-12-30T08:11:46.978Z,7.80
2018-12-30T08:14:16.129Z,7.90
2018-12-30T08:16:45.315Z,7.90
2018-12-30T08:19:14.504Z,8.00
2018-12-30T08:21:43.668Z,8.00
2018-12-30T08:24:12.871Z,8.00
2018-12-30T08:26:42.105Z,8.10
2018-12-30T08:29:11.213Z,8.10
2018-12-30T08:31:40.384Z,8.10
2018-12-30T08:34:09.554Z,8.10
2018-12-30T08:36:38.820Z,8.20
2018-12-30T08:39:08.828Z,8.20
2018-12-30T08:41:38.000Z,8.30
2018-12-30T08:44:07.231Z,8.30
2018-12-30T08:46:37.425Z,8.30
2018-12-30T08:49:06.631Z,8.40
2018-12-30T08:51:35.815Z,8.40
2018-12-30T08:54:05.031Z,8.40
2018-12-30T08:56:34.160Z,8.40
2018-12-30T08:59:03.342Z,8.40
2018-12-30T09:01:32.464Z,8.30
2018-12-30T09:04:01.734Z,8.30
2018-12-30T09:06:30.905Z,8.30
2018-12-30T09:09:00.022Z,8.30
2018-12-30T09:11:29.247Z,8.30
2018-12-30T09:13:58.425Z,8.30
2018-12-30T09:16:27.563Z,8.50
2018-12-30T09:18:56.757Z,8.60
2018-12-30T09:21:25.938Z,8.70
2018-12-30T09:23:55.307Z,8.80
2018-12-30T09:26:24.493Z,8.70
2018-12-30T09:28:53.734Z,8.60
2018-12-30T09:31:22.881Z,8.70
2018-12-30T09:33:53.483Z,8.80
2018-12-30T09:36:22.578Z,8.80
2018-12-30T09:38:51.740Z,8.80
2018-12-30T09:41:20.931Z,8.80
2018-12-30T09:43:50.149Z,8.80
2018-12-30T09:46:19.341Z,8.80
2018-12-30T09:48:48.495Z,8.80
2018-12-30T09:51:17.692Z,8.80
2018-12-30T09:53:46.873Z,8.90
2018-12-30T09:56:16.033Z,8.90
2018-12-30T09:58:45.256Z,9.10
2018-12-30T10:01:14.448Z,9.10
2018-12-30T10:03:43.673Z,9.10
2018-12-30T10:06:12.889Z,9.00
2018-12-30T10:08:42.080Z,9.10
2018-12-30T10:11:11.269Z,9.00
2018-12-30T10:13:40.540Z,9.00
2018-12-30T10:16:09.687Z,9.10
2018-12-30T10:18:38.906Z,9.10
2018-12-30T10:21:08.118Z,9.10
2018-12-30T10:23:37.314Z,9.00
2018-12-30T10:26:06.513Z,9.00
2018-12-30T10:28:35.723Z,9.00
2018-12-30T10:31:05.035Z,9.10
2018-12-30T10:33:34.288Z,9.00
2018-12-30T10:36:03.442Z,9.10
2018-12-30T10:38:32.712Z,9.10
2018-12-30T10:41:01.925Z,9.10
2018-12-30T10:43:31.114Z,9.20
2018-12-30T10:46:00.300Z,9.30
2018-12-30T10:48:29.510Z,9.40
2018-12-30T10:50:58.675Z,9.50
2018-12-30T10:53:27.878Z,9.50
2018-12-30T10:55:57.085Z,9.50
2018-12-30T10:58:26.335Z,9.60
2018-12-30T11:00:55.675Z,9.60
2018-12-30T11:03:24.904Z,9.70
2018-12-30T11:05:54.340Z,9.70
2018-12-30T11:08:23.598Z,9.70
2018-12-30T11:10:52.861Z,9.60
2018-12-30T11:13:22.080Z,9.50
2018-12-30T11:15:51.308Z,9.50
2018-12-30T11:18:20.469Z,9.50
2018-12-30T11:20:49.733Z,9.50
2018-12-30T11:23:19.020Z,9.50
2018-12-30T11:25:48.261Z,9.50
2018-12-30T11:28:17.428Z,9.60
2018-12-30T11:30:46.603Z,9.50
2018-12-30T11:33:15.926Z,9.60
2018-12-30T11:35:45.102Z,9.70
2018-12-30T11:38:14.309Z,9.80
2018-12-30T11:40:43.480Z,9.80
2018-12-30T11:43:12.715Z,9.80
2018-12-30T11:45:41.948Z,9.80
2018-12-30T11:48:11.169Z,9.80
2018-12-30T11:50:40.475Z,9.80
2018-12-30T11:53:09.732Z,9.80
2018-12-30T11:55:38.984Z,9.70
2018-12-30T11:58:08.145Z,9.80
2018-12-30T12:00:37.343Z,9.90
2018-12-30T12:03:06.511Z,9.90
2018-12-30T12:05:35.768Z,9.90
2018-12-30T12:08:05.035Z,9.80
2018-12-30T12:10:34.232Z,9.70
2018-12-30T12:13:03.661Z,9.80
2018-12-30T12:15:32.969Z,9.80
2018-12-30T12:18:02.198Z,9.80
2018-12-30T12:20:31.387Z,9.80
2018-12-30T12:23:00.589Z,9.80
2018-12-30T12:25:29.787Z,9.80
2018-12-30T12:27:58.950Z,9.80
2018-12-30T12:30:28.210Z,9.80
2018-12-30T12:32:57.478Z,9.80
2018-12-30T12:35:26.630Z,9.80
2018-12-30T12:37:55.865Z,9.70
2018-12-30T12:40:25.154Z,9.60
2018-12-30T12:42:54.428Z,9.60
2018-12-30T12:45:24.546Z,9.60
2018-12-30T12:47:53.794Z,9.50
2018-12-30T12:50:23.062Z,9.60
2018-12-30T12:52:52.185Z,9.60
2018-12-30T12:55:21.369Z,9.70
2018-12-30T12:57:50.584Z,9.80
2018-12-30T13:00:19.789Z,9.80
2018-12-30T13:02:49.077Z,9.80
2018-12-30T13:05:20.300Z,9.80
2018-12-30T13:07:49.490Z,9.80
2018-12-30T13:10:18.652Z,9.80
2018-12-30T13:12:47.864Z,9.80
2018-12-30T13:15:17.049Z,9.70
2018-12-30T13:17:46.258Z,9.80
2018-12-30T13:20:15.695Z,9.80
2018-12-30T13:22:44.950Z,9.80
2018-12-30T13:25:14.229Z,9.70
2018-12-30T13:27:43.428Z,9.70
2018-12-30T13:30:12.678Z,9.70
2018-12-30T13:32:41.859Z,9.70
2018-12-30T13:35:11.169Z,9.60
2018-12-30T13:37:40.442Z,9.60
2018-12-30T13:40:09.684Z,9.60
2018-12-30T13:42:38.972Z,9.60
2018-12-30T13:45:08.252Z,9.60
2018-12-30T13:47:37.485Z,9.60
2018-12-30T13:50:06.953Z,9.70
2018-12-30T13:52:36.174Z,9.60
2018-12-30T13:55:05.582Z,9.60
2018-12-30T13:57:34.810Z,9.60
2018-12-30T14:00:04.045Z,9.60
2018-12-30T14:02:33.360Z,9.50
2018-12-30T14:05:02.545Z,9.50
2018-12-30T14:07:32.004Z,9.50
2018-12-30T14:10:01.287Z,9.50
2018-12-30T14:12:30.490Z,9.40
2018-12-30T14:14:59.733Z,9.40
2018-12-30T14:17:29.013Z,9.40
2018-12-30T14:19:58.225Z,9.40
2018-12-30T14:22:27.504Z,9.30
2018-12-30T14:24:56.703Z,9.40
2018-12-30T14:27:25.909Z,9.30
2018-12-30T14:29:55.242Z,9.30
2018-12-30T14:32:24.448Z,9.30
2018-12-30T14:34:54.281Z,9.30
2018-12-30T14:37:23.853Z,9.20
2018-12-30T14:39:53.264Z,9.20
2018-12-30T14:42:22.470Z,9.20
2018-12-30T14:44:51.795Z,9.20
2018-12-30T14:47:21.059Z,9.10
2018-12-30T14:49:50.288Z,9.00
2018-12-30T14:52:19.518Z,9.00
2018-12-30T14:54:48.721Z,8.90
2018-12-30T14:57:17.924Z,8.90
2018-12-30T14:59:47.161Z,8.90
2018-12-30T15:02:16.329Z,8.80
2018-12-30T15:04:45.594Z,8.90
2018-12-30T15:07:14.868Z,8.90
2018-12-30T15:09:44.109Z,8.90
2018-12-30T15:12:13.345Z,8.80
2018-12-30T15:14:42.490Z,8.80
2018-12-30T15:17:11.726Z,8.80
2018-12-30T15:19:40.953Z,8.70
2018-12-30T15:22:10.178Z,8.70
2018-12-30T15:24:41.096Z,8.70
2018-12-30T15:27:10.312Z,8.80
2018-12-30T15:29:39.482Z,8.80
2018-12-30T15:32:08.685Z,8.70
2018-12-30T15:34:37.933Z,8.60
2018-12-30T15:37:07.152Z,8.60
2018-12-30T15:39:36.353Z,8.60
2018-12-30T15:42:05.622Z,8.60
2018-12-30T15:44:34.877Z,8.60
2018-12-30T15:47:04.104Z,8.60
2018-12-30T15:49:33.479Z,8.50
2018-12-30T15:52:02.695Z,8.50
2018-12-30T15:54:32.019Z,8.40
2018-12-30T15:57:01.364Z,8.30
2018-12-30T15:59:30.574Z,8.30
2018-12-30T16:01:59.808Z,8.30
2018-12-30T16:04:29.063Z,8.40
2018-12-30T16:06:58.237Z,8.30
2018-12-30T16:09:27.465Z,8.40
2018-12-30T16:11:56.701Z,8.40
2018-12-30T16:14:25.912Z,8.40
2018-12-30T16:16:55.511Z,8.40
2018-12-30T16:19:24.728Z,8.40
2018-12-30T16:21:54.081Z,8.40
2018-12-30T16:24:23.292Z,8.50
2018-12-30T16:26:52.538Z,8.50
2018-12-30T16:29:21.816Z,8.50
2018-12-30T16:31:50.988Z,8.50
2018-12-30T16:34:20.255Z,8.60
2018-12-30T16:36:49.504Z,8.50
2018-12-30T16:39:18.784Z,8.60
2018-12-30T16:41:48.027Z,8.60
2018-12-30T16:44:17.233Z,8.60
2018-12-30T16:46:46.485Z,8.60
2018-12-30T16:49:15.677Z,8.60
2018-12-30T16:51:45.449Z,8.50
2018-12-30T16:54:14.697Z,8.60
2018-12-30T16:56:43.905Z,8.60
2018-12-30T16:59:13.146Z,8.50
2018-12-30T17:01:42.392Z,8.50
2018-12-30T17:04:11.689Z,8.50
2018-12-30T17:06:40.931Z,8.50
2018-12-30T17:09:10.291Z,8.50
2018-12-30T17:11:39.521Z,8.50
2018-12-30T17:14:08.819Z,8.40
2018-12-30T17:16:38.134Z,8.40
2018-12-30T17:19:07.440Z,8.50
2018-12-30T17:21:36.753Z,8.40
2018-12-30T17:24:06.017Z,8.40
2018-12-30T17:26:35.318Z,8.40
2018-12-30T17:29:04.604Z,8.40
2018-12-30T17:31:33.864Z,8.40
2018-12-30T17:34:03.083Z,8.50
2018-12-30T17:36:32.340Z,8.50
2018-12-30T17:39:01.569Z,8.50
2018-12-30T17:41:30.894Z,8.50
2018-12-30T17:44:00.153Z,8.50
2018-12-30T17:46:29.367Z,8.50
2018-12-30T17:48:58.664Z,8.50
2018-12-30T17:51:27.972Z,8.50
2018-12-30T17:53:57.156Z,8.50
2018-12-30T17:56:26.356Z,8.50
2018-12-30T17:58:55.725Z,8.50
2018-12-30T18:01:25.079Z,8.50
2018-12-30T18:03:54.403Z,8.50
2018-12-30T18:06:23.600Z,8.50
2018-12-30T18:08:53.009Z,8.50
2018-12-30T18:11:22.251Z,8.50
2018-12-30T18:13:51.468Z,8.50
2018-12-30T18:16:20.746Z,8.50
2018-12-30T18:18:50.006Z,8.50
2018-12-30T18:21:19.280Z,8.50
2018-12-30T18:23:48.564Z,8.50
2018-12-30T18:26:17.830Z,8.50
2018-12-30T18:28:47.108Z,8.50
2018-12-30T18:31:16.373Z,8.50
2018-12-30T18:33:45.585Z,8.50
2018-12-30T18:36:14.866Z,8.50
2018-12-30T18:38:44.149Z,8.50
2018-12-30T18:41:13.388Z,8.50
2018-12-30T18:43:42.619Z,8.60
2018-12-30T18:46:11.835Z,8.50
2018-12-30T18:48:41.058Z,8.50
2018-12-30T18:51:10.316Z,8.50
2018-12-30T18:53:39.655Z,8.50
2018-12-30T18:56:08.834Z,8.50
2018-12-30T18:58:38.025Z,8.50
2018-12-30T19:01:07.293Z,8.50
2018-12-30T19:03:36.629Z,8.50
2018-12-30T19:06:05.848Z,8.50
2018-12-30T19:08:35.029Z,8.50
2018-12-30T19:11:04.251Z,8.50
2018-12-30T19:13:33.435Z,8.50
2018-12-30T19:16:02.716Z,8.50
2018-12-30T19:18:31.958Z,8.50
2018-12-30T19:21:01.192Z,8.50
2018-12-30T19:23:30.487Z,8.50
2018-12-30T19:26:01.154Z,8.50
2018-12-30T19:28:30.682Z,8.50
2018-12-30T19:30:59.949Z,8.50
2018-12-30T19:33:29.186Z,8.50
2018-12-30T19:35:58.491Z,8.50
2018-12-30T19:38:27.689Z,8.50
2018-12-30T19:40:57.019Z,8.50
2018-12-30T19:43:26.318Z,8.50
2018-12-30T19:45:55.715Z,8.50
2018-12-30T19:48:24.987Z,8.50
2018-12-30T19:50:54.348Z,8.50
2018-12-30T19:53:23.651Z,8.50
2018-12-30T19:55:53.111Z,8.50
2018-12-30T19:58:22.250Z,8.50
2018-12-30T20:00:51.430Z,8.50
2018-12-30T20:03:20.719Z,8.50
2018-12-30T20:05:49.888Z,8.60
2018-12-30T20:08:19.113Z,8.50
2018-12-30T20:10:48.331Z,8.50
2018-12-30T20:13:17.503Z,8.50
2018-12-30T20:15:46.717Z,8.50
2018-12-30T20:18:15.994Z,8.50
2018-12-30T20:20:45.239Z,8.60
2018-12-30T20:23:14.554Z,8.50
2018-12-30T20:25:43.817Z,8.50
2018-12-30T20:28:13.071Z,8.60
2018-12-30T20:30:42.325Z,8.60
2018-12-30T20:33:11.643Z,8.60
2018-12-30T20:35:40.881Z,8.60
2018-12-30T20:38:10.140Z,8.60
2018-12-30T20:40:39.459Z,8.70
2018-12-30T20:43:08.700Z,8.70
2018-12-30T20:45:37.961Z,8.60
2018-12-30T20:48:07.236Z,8.60
2018-12-30T20:50:36.514Z,8.70
2018-12-30T20:53:05.702Z,8.70
2018-12-30T20:55:34.932Z,8.70
2018-12-30T20:58:04.143Z,8.70
2018-12-30T21:00:33.340Z,8.70
2018-12-30T21:03:02.576Z,8.60
2018-12-30T21:05:31.823Z,8.70
2018-12-30T21:08:01.066Z,8.70
2018-12-30T21:10:30.365Z,8.60
2018-12-30T21:12:59.665Z,8.60
2018-12-30T21:15:28.915Z,8.60
2018-12-30T21:17:58.124Z,8.60
2018-12-30T21:20:27.397Z,8.60
2018-12-30T21:22:56.647Z,8.60
2018-12-30T21:25:25.864Z,8.60
2018-12-30T21:27:55.219Z,8.60
2018-12-30T21:30:24.493Z,8.70
2018-12-30T21:32:53.781Z,8.60
2018-12-30T21:35:22.954Z,8.60
2018-12-30T21:37:52.182Z,8.70
2018-12-30T21:40:21.452Z,8.70
2018-12-30T21:42:50.724Z,8.70
2018-12-30T21:45:19.934Z,8.80
2018-12-30T21:47:49.124Z,8.80
2018-12-30T21:50:18.446Z,8.80
2018-12-30T21:52:47.653Z,8.80
2018-12-30T21:55:16.941Z,8.80
2018-12-30T21:57:46.226Z,8.80
2018-12-30T22:00:15.533Z,8.80
2018-12-30T22:02:44.729Z,8.80
2018-12-30T22:05:14.062Z,8.80
2018-12-30T22:07:43.354Z,8.80
2018-12-30T22:10:17.222Z,8.80
2018-12-30T22:12:43.515Z,8.70
2018-12-30T22:15:12.801Z,8.80
2018-12-30T22:17:42.075Z,8.80
2018-12-30T22:20:11.304Z,8.80
2018-12-30T22:22:40.562Z,8.80
2018-12-30T22:25:09.849Z,8.80
2018-12-30T22:27:39.085Z,8.80
2018-12-30T22:30:08.290Z,8.70
2018-12-30T22:32:37.556Z,8.70
2018-12-30T22:35:07.134Z,8.70
2018-12-30T22:37:36.345Z,8.60
2018-12-30T22:40:06.277Z,8.60
2018-12-30T22:42:35.457Z,8.60
2018-12-30T22:45:04.958Z,8.60
2018-12-30T22:47:34.134Z,8.60
2018-12-30T22:50:03.465Z,8.70
2018-12-30T22:52:32.823Z,8.70
2018-12-30T22:55:02.088Z,8.70
2018-12-30T22:57:31.391Z,8.80
2018-12-30T23:00:00.584Z,8.80
2018-12-30T23:02:29.904Z,8.80
2018-12-30T23:04:59.149Z,8.80
2018-12-30T23:07:28.443Z,8.80
2018-12-30T23:09:57.682Z,8.80
2018-12-30T23:12:26.893Z,8.80
2018-12-30T23:14:56.339Z,8.80
2018-12-30T23:17:25.528Z,8.80
2018-12-30T23:19:55.045Z,8.70
2018-12-30T23:22:24.277Z,8.70
2018-12-30T23:24:53.509Z,8.80
2018-12-30T23:27:22.736Z,8.70
2018-12-30T23:29:52.001Z,8.70
2018-12-30T23:32:21.172Z,8.80
2018-12-30T23:34:50.384Z,8.80
2018-12-30T23:37:19.618Z,8.90
2018-12-30T23:39:48.903Z,8.90
2018-12-30T23:42:18.086Z,8.90
2018-12-30T23:44:47.298Z,8.90
2018-12-30T23:47:16.627Z,8.90
2018-12-30T23:49:45.882Z,8.90
2018-12-30T23:52:15.081Z,8.90
2018-12-30T23:54:44.301Z,8.90
2018-12-30T23:57:13.630Z,9.00
2018-12-30T23:59:42.914Z,9.00
